| time (UTC) | temp F | wind direction | speed knots | gust knots | rain 1hr in | rain 24hr in | rain mn in | humidity % | barometer mb |
| 20260902214648 | 79 | 37 | 0.9 | 5.2 | 0.00 | 1.11 | 1.11 | 82 | 1013.8 |
| 20260902213121 | 79 | 319 | 0.9 | 4.3 | 0.00 | 1.11 | 1.11 | 82 | 1014.2 |
| 20260902211622 | 79 | 69 | 0.0 | 3.5 | 0.00 | 1.11 | 1.11 | 82 | 1014.4 |
| 20260902210141 | 80 | 4 | 1.7 | 6.1 | 0.00 | 1.11 | 1.11 | 80 | 1014.0 |
| 20260902204637 | 81 | 337 | 0.9 | 4.3 | 0.00 | 1.11 | 1.11 | 80 | 1014.1 |
| 20260902203123 | 81 | 86 | 0.9 | 5.2 | 0.00 | 1.11 | 1.11 | 78 | 1014.4 |
| 20260902201644 | 81 | 63 | 1.7 | 5.2 | 0.00 | 1.11 | 1.11 | 77 | 1014.1 |
| 20260902200152 | 81 | 54 | 1.7 | 7.0 | 0.00 | 1.11 | 1.11 | 77 | 1013.8 |
| 20260902194630 | 82 | 342 | 1.7 | 4.3 | 0.00 | 1.11 | 1.11 | 77 | 1013.7 |
| 20260902193127 | 81 | 346 | 2.6 | 6.1 | 0.00 | 1.11 | 1.11 | 76 | 1013.9 |
| 20260902191624 | 82 | 65 | 2.6 | 5.2 | 0.00 | 1.11 | 1.11 | 76 | 1014.0 |
| 20260902190126 | 82 | 338 | 0.9 | 3.5 | 0.00 | 1.11 | 1.11 | 77 | 1013.9 |
| 20260902183134 | 81 | 58 | 0.0 | 3.5 | 0.00 | 1.11 | 1.11 | 77 | 1014.5 |
| 20260902181626 | 81 | 340 | 1.7 | 5.2 | 0.00 | 1.11 | 1.11 | 76 | 1014.4 |
| 20260902174630 | 78 | 70 | 0.9 | 2.6 | 0.00 | 1.11 | 1.11 | 84 | 1014.5 |
| 20260902173138 | 76 | 127 | 0.0 | 4.3 | 0.01 | 1.11 | 1.11 | 91 | 1014.4 |
| 20260902171646 | 73 | 332 | 1.7 | 4.3 | 0.01 | 1.11 | 1.11 | 95 | 1014.5 |
| 20260902170142 | 72 | 330 | 1.7 | 4.3 | 0.01 | 1.11 | 1.11 | 98 | 1014.6 |
| 20260902164627 | 71 | 49 | 0.9 | 3.5 | 0.03 | 1.11 | 1.11 | 98 | 1014.5 |
| 20260902163142 | 69 | 59 | 0.9 | 1.7 | 0.07 | 1.10 | 1.10 | 98 | 1014.9 |
| 20260902161654 | 69 | 61 | 0.9 | 2.6 | 0.15 | 1.10 | 1.10 | 98 | 1015.1 |
| 20260902160129 | 68 | 28 | 1.7 | 2.6 | 0.34 | 1.10 | 1.10 | 98 | 1015.5 |
| 20260902154622 | 67 | 61 | 0.9 | 2.6 | 0.72 | 1.08 | 1.08 | 98 | 1016.0 |
| 20260902153135 | 67 | 39 | 0.0 | 1.7 | 0.75 | 1.03 | 1.03 | 97 | 1017.2 |
| 20260902151630 | 68 | 70 | 0.9 | 4.3 | 0.75 | 0.95 | 0.95 | 98 | 1018.1 |
| 20260902150146 | 68 | 99 | 0.0 | 4.3 | 0.71 | 0.74 | 0.74 | 98 | 1018.6 |
| 20260902144640 | 68 | 72 | 0.0 | 0.9 | 0.35 | 0.36 | 0.36 | 98 | 1017.5 |
| 20260902143135 | 68 | 122 | 0.0 | 0.0 | 0.28 | 0.28 | 0.28 | 98 | 1016.6 |
| 20260902141630 | 68 | 122 | 0.0 | 2.6 | 0.19 | 0.19 | 0.19 | 97 | 1017.3 |
| 20260902140136 | 68 | 157 | 0.0 | 1.7 | 0.03 | 0.03 | 0.03 | 98 | 1016.4 |
| 20260902134633 | 69 | 134 | 0.0 | 0.9 | 0.01 | 0.01 | 0.01 | 97 | 1015.8 |
| 20260902133131 | 69 | 134 | 0.0 | 0.9 | 0.00 | 0.00 | 0.00 | 98 | 1016.1 |
| 20260902131646 | 69 | 134 | 0.9 | 1.7 | 0.00 | 0.00 | 0.00 | 98 | 1016.2 |
| 20260902130138 | 68 | 141 | 0.0 | 0.0 | 0.00 | 0.00 | 0.00 | 98 | 1015.9 |
| 20260902124623 | 68 | 141 | 0.0 | 0.0 | 0.00 | 0.00 | 0.00 | 98 | 1015.9 |
| 20260902123159 | 68 | 141 | 0.0 | 0.0 | 0.00 | 0.00 | 0.00 | 98 | 1015.9 |
| 20260902121634 | 68 | 141 | 0.0 | 0.0 | 0.00 | 0.00 | 0.00 | 98 | 1015.8 |
| 20260902120127 | 67 | 141 | 0.0 | 0.0 | 0.00 | 0.00 | 0.00 | 98 | 1015.2 |
| 20260902114704 | 67 | 141 | 0.0 | 0.0 | 0.00 | 0.00 | 0.00 | 98 | 1015.1 |
| 20260902113139 | 66 | 141 | 0.0 | 0.0 | 0.00 | 0.00 | 0.00 | 98 | 1015.3 |
| 20260902111631 | 66 | 141 | 0.0 | 0.9 | 0.00 | 0.00 | 0.00 | 98 | 1015.2 |
| 20260902110133 | 66 | 141 | 0.0 | 0.0 | 0.00 | 0.00 | 0.00 | 98 | 1015.1 |
| 20260902104623 | 65 | 141 | 0.0 | 0.0 | 0.00 | 0.00 | 0.00 | 98 | 1014.9 |
| 20260902103122 | 65 | 141 | 0.0 | 0.0 | 0.00 | 0.00 | 0.00 | 97 | 1015.1 |
| 20260902101624 | 65 | 141 | 0.0 | 0.0 | 0.00 | 0.00 | 0.00 | 97 | 1015.5 |
| 20260902100123 | 65 | 141 | 0.0 | 0.0 | 0.00 | 0.00 | 0.00 | 97 | 1015.4 |
| 20260902094641 | 65 | 143 | 0.0 | 0.0 | 0.00 | 0.04 | 0.00 | 97 | 1015.6 |
| 20260902093137 | 65 | 143 | 0.0 | 0.0 | 0.00 | 0.04 | 0.00 | 97 | 1015.7 |
| 20260902091633 | 65 | 143 | 0.0 | 0.0 | 0.00 | 0.04 | 0.00 | 97 | 1015.5 |
| 20260902090129 | 66 | 143 | 0.0 | 0.0 | 0.00 | 0.04 | 0.00 | 97 | 1015.7 |
| 20260902084624 | 66 | 143 | 0.0 | 0.0 | 0.00 | 0.04 | 0.00 | 97 | 1015.8 |
| 20260902083125 | 66 | 143 | 0.0 | 0.0 | 0.00 | 0.04 | 0.00 | 97 | 1015.9 |
| 20260902081637 | 66 | 143 | 0.0 | 0.0 | 0.00 | 0.04 | 0.00 | 97 | 1015.7 |
| 20260902080126 | 66 | 143 | 0.0 | 0.0 | 0.00 | 0.04 | 0.00 | 97 | 1015.6 |
| 20260902074645 | 66 | 143 | 0.0 | 0.0 | 0.00 | 0.07 | 0.00 | 97 | 1015.7 |
| 20260902073145 | 66 | 143 | 0.0 | 0.0 | 0.00 | 0.07 | 0.00 | 97 | 1015.6 |
| 20260902071635 | 66 | 143 | 0.0 | 0.0 | 0.00 | 0.07 | 0.00 | 97 | 1015.6 |
| 20260902070134 | 67 | 143 | 0.0 | 0.0 | 0.00 | 0.07 | 0.00 | 97 | 1015.4 |
| 20260902064629 | 67 | 143 | 0.0 | 0.0 | 0.00 | 0.07 | 0.00 | 97 | 1015.6 |
| 20260902063156 | 67 | 143 | 0.0 | 0.0 | 0.00 | 0.07 | 0.00 | 97 | 1015.6 |
| 20260902061638 | 67 | 143 | 0.0 | 0.0 | 0.00 | 0.07 | 0.00 | 96 | 1015.6 |
| 20260902060136 | 67 | 143 | 0.0 | 0.0 | 0.00 | 0.07 | 0.00 | 96 | 1015.6 |
| 20260902054634 | 67 | 143 | 0.0 | 0.0 | 0.00 | 0.08 | 0.00 | 96 | 1015.5 |
| 20260902053133 | 67 | 143 | 0.0 | 0.0 | 0.00 | 0.08 | 0.00 | 96 | 1015.8 |
| 20260902051652 | 67 | 143 | 0.0 | 0.0 | 0.00 | 0.08 | 0.00 | 96 | 1015.4 |
| 20260902050135 | 67 | 143 | 0.0 | 0.0 | 0.00 | 0.08 | 0.00 | 96 | 1015.5 |
| 20260902044634 | 67 | 143 | 0.0 | 0.0 | 0.00 | 0.08 | 0.00 | 96 | 1015.3 |
| 20260902043131 | 67 | 143 | 0.0 | 0.0 | 0.00 | 0.08 | 0.00 | 96 | 1015.3 |
| 20260902041623 | 68 | 143 | 0.0 | 0.0 | 0.00 | 0.08 | 0.00 | 95 | 1015.2 |
| 20260902040157 | 68 | 143 | 0.0 | 0.0 | 0.00 | 0.08 | 0.00 | 95 | 1015.1 |
| 20260902034632 | 68 | 143 | 0.0 | 0.0 | 0.00 | 0.08 | 0.08 | 95 | 1015.2 |
| 20260902033130 | 69 | 143 | 0.0 | 0.0 | 0.00 | 0.08 | 0.08 | 95 | 1015.3 |
| 20260902031626 | 69 | 143 | 0.0 | 0.0 | 0.00 | 0.08 | 0.08 | 94 | 1015.2 |
| 20260902030144 | 69 | 143 | 0.0 | 0.0 | 0.00 | 0.08 | 0.08 | 94 | 1015.1 |
| 20260902024622 | 70 | 143 | 0.0 | 0.0 | 0.00 | 0.08 | 0.08 | 93 | 1015.1 |
| 20260902023139 | 70 | 143 | 0.0 | 0.9 | 0.00 | 0.08 | 0.08 | 93 | 1015.3 |
| 20260902021633 | 71 | 143 | 0.0 | 0.9 | 0.00 | 0.08 | 0.08 | 93 | 1015.4 |
| 20260902020122 | 71 | 143 | 0.0 | 0.0 | 0.00 | 0.08 | 0.08 | 93 | 1015.2 |
| 20260902014622 | 71 | 143 | 0.0 | 0.0 | 0.00 | 0.08 | 0.08 | 93 | 1015.2 |
| 20260902013126 | 71 | 143 | 0.0 | 0.0 | 0.00 | 0.08 | 0.08 | 93 | 1015.3 |
| 20260902011645 | 71 | 143 | 0.0 | 0.0 | 0.00 | 0.08 | 0.08 | 92 | 1014.9 |
| 20260902010140 | 72 | 143 | 0.0 | 0.9 | 0.00 | 0.08 | 0.08 | 92 | 1014.9 |
| 20260902004625 | 72 | 143 | 0.0 | 0.9 | 0.00 | 0.08 | 0.08 | 92 | 1014.8 |
| 20260902003150 | 72 | 162 | 0.0 | 0.0 | 0.00 | 0.08 | 0.08 | 92 | 1014.3 |
| 20260902001627 | 73 | 162 | 0.0 | 0.0 | 0.00 | 0.08 | 0.08 | 91 | 1014.1 |
| 20260902000159 | 73 | 163 | 0.0 | 0.0 | 0.00 | 0.08 | 0.08 | 91 | 1014.0 |
| 20260901234635 | 74 | 163 | 0.0 | 0.0 | 0.00 | 0.09 | 0.08 | 90 | 1013.8 |
| 20260901233134 | 75 | 163 | 0.0 | 0.0 | 0.00 | 0.09 | 0.08 | 89 | 1014.0 |
| 20260901231626 | 75 | 164 | 0.0 | 0.0 | 0.00 | 0.09 | 0.08 | 88 | 1014.1 |
| 20260901230145 | 76 | 163 | 0.0 | 0.0 | 0.00 | 0.09 | 0.08 | 88 | 1014.0 |
| 20260901224638 | 76 | 163 | 0.0 | 0.0 | 0.00 | 0.09 | 0.08 | 87 | 1014.2 |
| 20260901223137 | 77 | 163 | 0.0 | 0.0 | 0.00 | 0.09 | 0.08 | 87 | 1014.0 |
| 20260901221633 | 78 | 170 | 0.0 | 0.0 | 0.00 | 0.09 | 0.08 | 86 | 1013.9 |
| 20260901220155 | 77 | 171 | 0.0 | 0.0 | 0.00 | 0.09 | 0.08 | 87 | 1013.8 |